Time;durP1;ratioP1;P1;durP2;ratioP2;P2;SDS_P1;SDS_P2;PMS_P1;PMS_P2;Temp;Humidity;BMP_temperature;BMP_pressure;BME280_temperature;BME280_humidity;BME280_pressure;Samples;Min_cycle;Max_cycle;Signal;HPM_P1;HPM_P2
2023/08/14 00:01:25;;;;;;;7.32;3.42;;;27.90;81.00;;;;;;4991803;28;20132;-81
2023/08/14 00:03:51;;;;;;;5.00;3.63;;;27.90;81.10;;;;;;5011416;28;20041;-81
2023/08/14 00:06:17;;;;;;;4.53;3.45;;;27.90;81.10;;;;;;5012325;28;20037;-81
2023/08/14 00:08:43;;;;;;;4.55;3.00;;;27.90;81.30;;;;;;5011176;28;20041;-82
2023/08/14 00:11:09;;;;;;;4.53;3.70;;;27.90;81.40;;;;;;5011497;28;20030;-81
2023/08/14 00:13:52;;;;;;;5.07;3.30;;;27.90;81.60;;;;;;5012097;28;20077;-81
2023/08/14 00:16:18;;;;;;;3.85;3.50;;;27.80;82.00;;;;;;5020225;28;20046;-85
2023/08/14 00:18:44;;;;;;;4.28;3.80;;;27.80;81.90;;;;;;5013324;28;20719;-85
2023/08/14 00:21:09;;;;;;;5.47;4.35;;;27.80;81.70;;;;;;4993689;28;20053;-86
2023/08/14 00:23:35;;;;;;;5.18;3.90;;;27.70;81.70;;;;;;4976628;28;20563;-83
2023/08/14 00:26:01;;;;;;;7.03;3.75;;;27.70;81.80;;;;;;5008780;28;20404;-83
2023/08/14 00:28:27;;;;;;;7.03;4.22;;;27.70;81.90;;;;;;4983868;28;20058;-85
2023/08/14 00:30:52;;;;;;;5.78;3.80;;;27.60;82.00;;;;;;5005307;28;20085;-83
2023/08/14 00:33:18;;;;;;;5.60;4.22;;;27.60;82.10;;;;;;4995670;28;20052;-83
2023/08/14 00:35:44;;;;;;;5.32;4.32;;;27.60;82.20;;;;;;4991137;28;20041;-83
2023/08/14 00:38:09;;;;;;;5.72;4.65;;;27.50;82.50;;;;;;5008088;28;20041;-84
2023/08/14 00:40:35;;;;;;;5.47;4.97;;;27.50;82.30;;;;;;5005200;28;20042;-84
2023/08/14 00:43:01;;;;;;;5.45;4.55;;;27.50;82.90;;;;;;5009226;28;20083;-88
2023/08/14 00:45:27;;;;;;;6.60;4.68;;;27.50;82.80;;;;;;5007644;28;20400;-87
2023/08/14 00:47:54;;;;;;;5.57;4.70;;;27.40;82.80;;;;;;5008503;28;20038;-86
2023/08/14 00:50:20;;;;;;;6.22;5.13;;;27.40;82.90;;;;;;4986194;28;20034;-87
2023/08/14 00:52:48;;;;;;;5.60;5.00;;;27.40;82.90;;;;;;5015297;28;20030;-86
2023/08/14 00:55:17;;;;;;;7.10;4.78;;;27.40;83.00;;;;;;5006748;28;20042;-87
2023/08/14 00:57:44;;;;;;;5.88;5.05;;;27.40;83.20;;;;;;5010040;28;20042;-86
2023/08/14 01:00:11;;;;;;;5.95;5.00;;;27.30;83.10;;;;;;5013645;28;20093;-85
2023/08/14 01:02:38;;;;;;;5.07;4.57;;;27.30;83.20;;;;;;5006557;28;20046;-86
2023/08/14 01:05:03;;;;;;;6.47;4.93;;;27.30;83.40;;;;;;5012390;28;20049;-85
2023/08/14 01:07:29;;;;;;;7.10;5.53;;;27.30;83.50;;;;;;4994033;28;20404;-85
2023/08/14 01:09:56;;;;;;;4.65;4.25;;;27.30;83.70;;;;;;5010784;28;20037;-84
2023/08/14 01:12:42;;;;;;;5.30;4.40;;;27.30;83.70;;;;;;5013196;28;20030;-85
2023/08/14 01:15:25;;;;;;;7.50;4.80;;;27.30;83.90;;;;;;5011942;28;20034;-82
2023/08/14 01:17:58;;;;;;;6.10;4.68;;;27.30;84.10;;;;;;4994250;28;20048;-82
2023/08/14 01:20:27;;;;;;;5.50;5.00;;;27.30;84.20;;;;;;5006664;28;20042;-81
2023/08/14 01:23:17;;;;;;;6.25;4.70;;;27.20;84.20;;;;;;5011463;28;20173;-81
2023/08/14 01:25:43;;;;;;;6.30;5.35;;;27.20;84.30;;;;;;5004897;28;20046;-81
2023/08/14 01:28:09;;;;;;;7.05;5.05;;;27.20;84.50;;;;;;5005880;28;20488;-80
2023/08/14 01:30:35;;;;;;;8.00;5.50;;;27.20;84.50;;;;;;5012794;28;20030;-81
2023/08/14 01:33:01;;;;;;;6.00;4.65;;;27.20;84.50;;;;;;5012784;28;20060;-83
2023/08/14 01:35:38;;;;;;;6.30;5.20;;;27.20;84.60;;;;;;5014479;28;20038;-82
2023/08/14 01:38:37;;;;;;;7.13;4.72;;;27.10;84.80;;;;;;5012331;28;20084;-81
2023/08/14 01:41:19;;;;;;;6.38;5.00;;;27.10;84.90;;;;;;4998947;28;20416;-80
2023/08/14 01:43:48;;;;;;;5.10;4.07;;;27.10;85.10;;;;;;5008121;28;20593;-80
2023/08/14 01:46:15;;;;;;;5.57;4.55;;;27.10;85.20;;;;;;5002974;28;20500;-80
2023/08/14 01:48:41;;;;;;;5.53;4.75;;;27.10;85.30;;;;;;4987265;28;20065;-80
2023/08/14 01:51:09;;;;;;;5.55;4.60;;;27.10;85.50;;;;;;5008818;28;20595;-80
2023/08/14 01:53:36;;;;;;;4.97;4.22;;;27.10;85.50;;;;;;5003539;28;20372;-81
2023/08/14 01:56:02;;;;;;;7.65;4.40;;;27.10;85.50;;;;;;4995057;28;20125;-81
2023/08/14 01:58:28;;;;;;;6.35;4.30;;;27.10;85.50;;;;;;5014272;28;20113;-81
2023/08/14 02:00:53;;;;;;;4.18;3.78;;;27.20;85.50;;;;;;5013920;28;20484;-81
2023/08/14 02:03:19;;;;;;;5.68;4.20;;;27.20;85.50;;;;;;5013776;28;20104;-81
2023/08/14 02:05:45;;;;;;;6.53;4.03;;;27.20;85.40;;;;;;5006108;28;20050;-81
2023/08/14 02:08:11;;;;;;;6.13;4.00;;;27.20;86.10;;;;;;5012746;28;20038;-83
2023/08/14 02:10:36;;;;;;;5.40;4.03;;;27.20;85.60;;;;;;5009375;28;20058;-85
2023/08/14 02:13:02;;;;;;;4.63;4.10;;;27.20;85.50;;;;;;5004509;28;20436;-85
2023/08/14 02:15:28;;;;;;;4.18;3.67;;;27.20;85.60;;;;;;5015192;28;20034;-85
2023/08/14 02:17:54;;;;;;;4.03;3.63;;;27.20;85.70;;;;;;5014671;28;20033;-85
2023/08/14 02:20:20;;;;;;;4.75;3.60;;;27.20;85.90;;;;;;5014981;28;20687;-86
2023/08/14 02:22:46;;;;;;;4.13;3.72;;;27.10;85.90;;;;;;5008746;28;20041;-85
2023/08/14 02:25:11;;;;;;;5.57;3.55;;;27.20;86.00;;;;;;4994942;28;20052;-84
2023/08/14 02:27:37;;;;;;;5.00;3.90;;;27.10;86.00;;;;;;5007767;28;20034;-84
2023/08/14 02:30:03;;;;;;;6.55;3.80;;;27.10;86.00;;;;;;5002733;28;20038;-84
2023/08/14 02:32:29;;;;;;;5.10;3.63;;;27.10;86.20;;;;;;5009104;28;20511;-84
2023/08/14 02:34:56;;;;;;;4.78;3.70;;;27.10;86.10;;;;;;4995498;28;20034;-83
2023/08/14 02:37:22;;;;;;;4.82;3.83;;;27.10;86.30;;;;;;5013925;28;20084;-82
2023/08/14 02:39:48;;;;;;;4.80;4.22;;;27.10;86.40;;;;;;5013905;28;20038;-81
2023/08/14 02:42:18;;;;;;;4.75;4.10;;;27.00;86.40;;;;;;5014124;28;20034;-81
2023/08/14 02:44:44;;;;;;;;;;;27.00;86.40;;;;;;5014565;28;20038;-82
2023/08/14 02:47:09;;;;;;;6.43;4.03;;;27.00;86.50;;;;;;5009563;28;19991;-83
2023/08/14 02:49:35;;;;;;;5.03;3.78;;;27.00;86.60;;;;;;5012475;28;20488;-83
2023/08/14 02:52:01;;;;;;;4.90;3.58;;;26.90;86.60;;;;;;5012887;28;20034;-83
2023/08/14 02:54:27;;;;;;;4.00;3.05;;;26.90;86.70;;;;;;5003863;28;20447;-82
2023/08/14 02:56:53;;;;;;;4.95;4.00;;;26.90;86.70;;;;;;5011082;28;20399;-83
2023/08/14 02:59:20;;;;;;;5.07;3.58;;;26.90;86.70;;;;;;5012919;28;20038;-82
2023/08/14 03:01:46;;;;;;;3.97;3.33;;;26.90;86.40;;;;;;5051154;23;20109;-84
2023/08/14 03:04:15;;;;;;;4.90;3.33;;;26.80;86.30;;;;;;4989585;28;20058;-83
2023/08/14 03:06:41;;;;;;;6.85;3.20;;;26.90;86.30;;;;;;4992678;28;20046;-83
2023/08/14 03:09:08;;;;;;;3.58;2.90;;;26.90;86.00;;;;;;4993146;28;20419;-84
2023/08/14 03:11:34;;;;;;;5.47;3.25;;;26.90;85.80;;;;;;4978151;28;20035;-84
2023/08/14 03:13:59;;;;;;;3.65;3.17;;;26.90;85.70;;;;;;4976624;28;20540;-84
2023/08/14 03:16:25;;;;;;;3.50;3.20;;;26.90;85.60;;;;;;4991065;28;20502;-84
2023/08/14 03:18:51;;;;;;;5.22;3.70;;;26.80;85.40;;;;;;4983992;28;20952;-84
2023/08/14 03:21:17;;;;;;;4.57;3.15;;;26.80;85.50;;;;;;4987264;28;20085;-84
2023/08/14 03:23:43;;;;;;;3.85;2.97;;;26.70;85.50;;;;;;4992381;28;20048;-84
2023/08/14 03:26:09;;;;;;;4.28;3.20;;;26.70;85.60;;;;;;4990038;28;20066;-84
2023/08/14 03:28:35;;;;;;;3.33;2.85;;;26.70;85.60;;;;;;4989979;28;20034;-84
2023/08/14 03:31:01;;;;;;;3.65;3.08;;;26.70;85.60;;;;;;4990082;28;20033;-84
2023/08/14 03:33:26;;;;;;;5.68;3.30;;;26.70;85.50;;;;;;4991993;28;20035;-84
2023/08/14 03:35:53;;;;;;;3.33;2.80;;;26.70;85.40;;;;;;4990097;28;20034;-86
2023/08/14 03:38:19;;;;;;;3.20;2.90;;;26.60;85.30;;;;;;4992009;28;20057;-85
2023/08/14 03:40:45;;;;;;;3.65;3.03;;;26.60;85.20;;;;;;4985720;28;20038;-85
2023/08/14 03:43:10;;;;;;;3.17;2.65;;;26.60;85.10;;;;;;4990654;28;20030;-85
2023/08/14 03:45:36;;;;;;;3.83;2.78;;;26.60;85.10;;;;;;4991963;28;20042;-84
2023/08/14 03:48:02;;;;;;;4.03;3.22;;;26.60;85.00;;;;;;4989212;28;20400;-86
2023/08/14 03:50:28;;;;;;;2.97;2.70;;;26.60;84.90;;;;;;4973539;28;20047;-84
2023/08/14 03:52:54;;;;;;;3.45;2.75;;;26.60;84.90;;;;;;4974103;28;20046;-82
2023/08/14 03:55:20;;;;;;;3.13;2.35;;;26.60;84.90;;;;;;4986023;28;20026;-82
2023/08/14 03:57:46;;;;;;;3.55;2.90;;;26.60;84.80;;;;;;4994555;28;20045;-84
2023/08/14 04:00:13;;;;;;;3.13;2.83;;;26.60;84.70;;;;;;4992026;28;20129;-83
2023/08/14 04:02:39;;;;;;;3.13;2.90;;;26.60;84.60;;;;;;4991877;28;20074;-84
2023/08/14 04:05:05;;;;;;;4.07;2.58;;;26.60;84.30;;;;;;4992553;28;20121;-81
2023/08/14 04:07:31;;;;;;;3.85;2.72;;;26.60;84.20;;;;;;4992745;28;20088;-81
2023/08/14 04:09:57;;;;;;;4.82;2.92;;;26.60;84.10;;;;;;4997394;28;20460;-81
2023/08/14 04:12:22;;;;;;;3.33;2.88;;;26.60;84.10;;;;;;4996871;28;20050;-82
2023/08/14 04:14:51;;;;;;;3.38;2.45;;;26.60;83.80;;;;;;4996450;28;20076;-82
2023/08/14 04:17:17;;;;;;;4.20;3.40;;;26.60;83.90;;;;;;4997130;28;20041;-81
2023/08/14 04:19:43;;;;;;;4.88;2.70;;;26.60;83.70;;;;;;4997112;28;20258;-82
2023/08/14 04:22:10;;;;;;;6.93;2.95;;;26.60;83.60;;;;;;4996576;28;20046;-81
2023/08/14 04:24:36;;;;;;;3.15;2.70;;;26.50;83.50;;;;;;4995807;28;20038;-81
2023/08/14 04:27:01;;;;;;;2.95;2.70;;;26.50;83.40;;;;;;4995731;28;20050;-81
2023/08/14 04:29:27;;;;;;;9.40;3.08;;;26.50;83.40;;;;;;4994555;28;20023;-81
2023/08/14 04:31:53;;;;;;;4.53;2.80;;;26.50;83.50;;;;;;4989161;28;20043;-80
2023/08/14 04:34:20;;;;;;;5.55;2.65;;;26.50;83.30;;;;;;4988681;28;20031;-80
2023/08/14 04:36:46;;;;;;;5.13;3.20;;;26.50;83.40;;;;;;4975893;28;20042;-81
2023/08/14 04:39:12;;;;;;;3.60;2.70;;;26.50;83.60;;;;;;4993949;28;20495;-82
2023/08/14 04:41:38;;;;;;;3.67;2.63;;;26.50;83.50;;;;;;4992333;28;20042;-79
2023/08/14 04:44:03;;;;;;;3.42;2.88;;;26.50;83.70;;;;;;4969873;28;20042;-81
2023/08/14 04:46:30;;;;;;;7.18;3.00;;;26.50;83.60;;;;;;4989973;28;20476;-83
2023/08/14 04:48:56;;;;;;;4.00;2.92;;;26.50;83.60;;;;;;4978558;28;20042;-87
2023/08/14 04:51:21;;;;;;;6.88;2.90;;;26.50;83.80;;;;;;4998814;28;20109;-88
2023/08/14 04:53:47;;;;;;;2.95;2.17;;;26.50;83.70;;;;;;5008946;28;20092;-88
2023/08/14 04:56:13;;;;;;;3.70;2.72;;;26.50;83.70;;;;;;4994185;28;20094;-88
2023/08/14 04:58:38;;;;;;;3.70;2.65;;;26.40;83.50;;;;;;4978575;28;20051;-88
2023/08/14 05:01:04;;;;;;;5.15;2.80;;;26.50;83.70;;;;;;4991544;28;20129;-87
2023/08/14 05:03:30;;;;;;;3.33;2.50;;;26.40;83.50;;;;;;4976510;28;20114;-90
2023/08/14 05:05:55;;;;;;;4.22;2.42;;;26.40;83.60;;;;;;4982959;28;20047;-80
2023/08/14 05:08:21;;;;;;;3.15;2.70;;;26.40;83.70;;;;;;4959970;28;20050;-79
2023/08/14 05:10:54;;;;;;;4.28;2.60;;;26.30;83.60;;;;;;4983072;28;20045;-79
2023/08/14 05:13:21;;;;;;;3.97;2.70;;;26.40;83.90;;;;;;4992715;28;20404;-80
2023/08/14 05:15:48;;;;;;;2.60;2.40;;;26.40;83.80;;;;;;4994772;28;20113;-80
2023/08/14 05:18:14;;;;;;;2.80;2.58;;;26.40;83.70;;;;;;4992235;28;20054;-80
2023/08/14 05:20:47;;;;;;;2.70;2.50;;;26.40;83.70;;;;;;4995789;28;20491;-79
2023/08/14 05:23:14;;;;;;;4.10;2.70;;;26.40;83.70;;;;;;4993441;28;20046;-90
2023/08/14 05:25:44;;;;;;;3.10;2.42;;;26.40;83.60;;;;;;4995989;28;20053;-89
2023/08/14 05:28:10;;;;;;;3.17;2.30;;;26.40;83.70;;;;;;5003272;28;20066;-90
2023/08/14 05:30:36;;;;;;;4.18;2.55;;;26.40;83.60;;;;;;4989945;28;20038;-85
2023/08/14 05:33:03;;;;;;;3.03;2.53;;;26.40;83.50;;;;;;4992891;28;20054;-87
2023/08/14 05:35:29;;;;;;;2.90;2.58;;;26.40;83.40;;;;;;4995788;28;20054;-88
2023/08/14 05:37:56;;;;;;;4.30;2.40;;;26.50;83.80;;;;;;4983548;28;20070;-85
2023/08/14 05:40:26;;;;;;;4.35;2.60;;;26.50;83.70;;;;;;4984048;28;20096;-85
2023/08/14 05:43:22;;;;;;;2.75;2.35;;;26.50;83.60;;;;;;4990093;28;20078;-84
2023/08/14 05:45:49;;;;;;;2.70;2.50;;;26.50;83.60;;;;;;4977581;28;20050;-84
2023/08/14 05:48:15;;;;;;;4.55;2.92;;;26.50;83.50;;;;;;4992955;28;20050;-77
2023/08/14 05:50:42;;;;;;;3.90;2.55;;;26.50;83.50;;;;;;4990627;28;20027;-77
2023/08/14 05:53:08;;;;;;;4.78;2.95;;;26.50;83.40;;;;;;4994034;28;20085;-77
2023/08/14 05:55:36;;;;;;;4.43;2.92;;;26.50;83.50;;;;;;4993247;28;20034;-77
2023/08/14 05:58:03;;;;;;;5.25;2.50;;;26.50;83.70;;;;;;4993754;28;20042;-77
2023/08/14 06:00:30;;;;;;;4.13;2.60;;;26.60;83.90;;;;;;4992356;28;20369;-77
2023/08/14 06:02:56;;;;;;;3.97;2.92;;;26.60;83.90;;;;;;4992042;28;20065;-77
2023/08/14 06:05:22;;;;;;;3.72;2.10;;;26.60;83.80;;;;;;4992696;28;20544;-77
2023/08/14 06:07:48;;;;;;;4.70;2.75;;;26.60;83.60;;;;;;4994961;28;20041;-77
2023/08/14 06:10:14;;;;;;;3.72;2.60;;;26.60;83.60;;;;;;4983549;28;20027;-77
2023/08/14 06:12:41;;;;;;;3.28;2.42;;;26.60;83.70;;;;;;4987913;28;20837;-77
2023/08/14 06:15:07;;;;;;;2.88;2.50;;;26.60;83.60;;;;;;4970342;28;20038;-77
2023/08/14 06:17:33;;;;;;;3.58;2.45;;;26.60;83.70;;;;;;4984529;28;20061;-77
2023/08/14 06:19:59;;;;;;;3.17;2.50;;;26.70;83.70;;;;;;4989788;28;20038;-77
2023/08/14 06:22:25;;;;;;;3.25;2.70;;;26.70;83.80;;;;;;4994540;28;20031;-77
2023/08/14 06:24:51;;;;;;;4.03;2.70;;;26.80;83.70;;;;;;4993335;28;20034;-77
2023/08/14 06:27:17;;;;;;;4.82;2.90;;;26.80;83.50;;;;;;4970568;28;20037;-77
2023/08/14 06:29:43;;;;;;;3.03;2.70;;;26.80;83.30;;;;;;4993340;28;20030;-77
2023/08/14 06:32:08;;;;;;;6.53;2.40;;;26.80;84.00;;;;;;4992184;28;20105;-77
2023/08/14 06:34:34;;;;;;;3.70;2.38;;;26.80;83.50;;;;;;4984046;28;20023;-77
2023/08/14 06:37:00;;;;;;;2.95;2.65;;;26.90;83.40;;;;;;4994087;28;20559;-78
2023/08/14 06:39:26;;;;;;;3.33;2.60;;;26.90;83.20;;;;;;4992692;28;20044;-78
2023/08/14 06:41:51;;;;;;;5.18;2.35;;;26.90;83.30;;;;;;4977608;28;20035;-77
2023/08/14 06:44:17;;;;;;;2.75;2.45;;;27.00;83.50;;;;;;4994081;28;20042;-77
2023/08/14 06:46:43;;;;;;;3.10;2.50;;;27.10;83.50;;;;;;4993556;28;20113;-77
2023/08/14 06:49:11;;;;;;;2.67;2.47;;;27.10;84.00;;;;;;4987971;28;20053;-77
2023/08/14 06:51:37;;;;;;;4.03;2.20;;;27.20;83.60;;;;;;4975835;28;20435;-78
2023/08/14 06:54:04;;;;;;;2.88;2.60;;;27.20;83.40;;;;;;4993966;28;20134;-77
2023/08/14 06:56:30;;;;;;;2.85;2.35;;;27.20;83.10;;;;;;4993336;28;20045;-77
2023/08/14 06:58:56;;;;;;;3.47;2.65;;;27.30;83.10;;;;;;4994047;28;20037;-77
2023/08/14 07:01:22;;;;;;;5.00;2.75;;;27.40;83.20;;;;;;4976166;28;20047;-77
2023/08/14 07:03:48;;;;;;;3.65;2.67;;;27.40;83.00;;;;;;4992147;28;20034;-77
2023/08/14 07:06:13;;;;;;;4.45;2.83;;;27.40;82.60;;;;;;4993354;28;20046;-77
2023/08/14 07:08:39;;;;;;;4.65;2.35;;;27.50;82.40;;;;;;4992671;28;20580;-77
2023/08/14 07:11:05;;;;;;;3.55;2.55;;;27.50;82.10;;;;;;4993647;28;20030;-77
2023/08/14 07:13:30;;;;;;;3.42;2.65;;;27.50;82.20;;;;;;4992971;28;20065;-77
2023/08/14 07:15:56;;;;;;;2.88;2.60;;;27.50;82.00;;;;;;4992446;28;20042;-78
2023/08/14 07:18:22;;;;;;;3.58;2.50;;;27.60;82.00;;;;;;4992761;28;20030;-77
2023/08/14 07:20:48;;;;;;;5.63;3.17;;;27.70;82.00;;;;;;4993023;28;20473;-77
2023/08/14 07:23:18;;;;;;;2.90;2.55;;;27.70;81.90;;;;;;4993534;28;20026;-77
2023/08/14 07:25:44;;;;;;;6.13;2.65;;;27.80;81.70;;;;;;4983012;28;20042;-77
2023/08/14 07:28:11;;;;;;;2.67;2.20;;;27.90;81.80;;;;;;4992872;28;20500;-77
2023/08/14 07:30:38;;;;;;;3.83;2.47;;;28.00;81.50;;;;;;4986211;28;20090;-78
2023/08/14 07:33:04;;;;;;;3.30;2.47;;;28.10;81.50;;;;;;4984911;28;20065;-78
2023/08/14 07:35:31;;;;;;;3.50;2.83;;;28.20;81.30;;;;;;4980074;28;20035;-78
2023/08/14 07:37:58;;;;;;;7.03;2.80;;;28.20;80.90;;;;;;4974734;28;20038;-79
2023/08/14 07:40:24;;;;;;;3.40;2.50;;;28.30;80.40;;;;;;4987860;28;20034;-78
2023/08/14 07:42:50;;;;;;;2.78;2.40;;;28.40;80.40;;;;;;4984692;28;20046;-78
2023/08/14 07:45:16;;;;;;;2.20;2.00;;;28.50;80.20;;;;;;4967854;28;20112;-76
2023/08/14 07:47:42;;;;;;;4.20;2.78;;;28.50;79.80;;;;;;4973976;28;20377;-78
2023/08/14 07:50:09;;;;;;;4.07;2.65;;;28.60;79.20;;;;;;4984005;28;20504;-77
2023/08/14 07:52:35;;;;;;;3.67;2.97;;;28.60;79.20;;;;;;4985212;28;20035;-79
2023/08/14 07:55:01;;;;;;;3.00;2.70;;;28.60;79.00;;;;;;4977278;28;20495;-80
2023/08/14 07:57:27;;;;;;;3.35;2.60;;;28.70;79.30;;;;;;4990707;28;20552;-78
2023/08/14 07:59:54;;;;;;;4.15;2.45;;;28.80;79.00;;;;;;4961389;28;20054;-79
2023/08/14 08:02:20;;;;;;;3.60;2.30;;;28.80;79.40;;;;;;5003528;28;20133;-79
2023/08/14 08:04:46;;;;;;;9.70;2.70;;;28.90;79.90;;;;;;5008836;28;20041;-79
2023/08/14 08:07:12;;;;;;;3.58;2.65;;;28.90;79.80;;;;;;4993259;28;20088;-79
2023/08/14 08:09:38;;;;;;;5.00;2.75;;;29.00;79.30;;;;;;4986631;28;20026;-79
2023/08/14 08:12:04;;;;;;;3.78;2.72;;;29.00;79.80;;;;;;4983790;28;20165;-79
2023/08/14 08:14:29;;;;;;;2.75;2.55;;;29.10;79.50;;;;;;4962247;28;20489;-79
2023/08/14 08:16:55;;;;;;;5.18;2.20;;;29.20;79.30;;;;;;4979873;28;20045;-78
2023/08/14 08:19:21;;;;;;;5.28;2.70;;;29.20;79.10;;;;;;4991617;28;20592;-79
2023/08/14 08:21:47;;;;;;;3.70;3.25;;;29.30;79.40;;;;;;4990524;28;20392;-79
2023/08/14 08:24:13;;;;;;;2.90;2.70;;;29.40;79.30;;;;;;4980400;28;20049;-80
2023/08/14 08:26:39;;;;;;;2.75;2.17;;;29.40;79.00;;;;;;4980614;28;20034;-80
2023/08/14 08:29:05;;;;;;;3.13;2.70;;;29.40;79.30;;;;;;4989178;28;20038;-80
2023/08/14 08:31:31;;;;;;;3.38;2.80;;;29.50;79.90;;;;;;4983313;28;20464;-80
2023/08/14 08:33:57;;;;;;;2.83;2.30;;;29.60;80.40;;;;;;4989042;28;20035;-79
2023/08/14 08:36:23;;;;;;;4.15;2.78;;;29.70;80.10;;;;;;4976324;28;20043;-79
2023/08/14 08:38:49;;;;;;;2.85;2.30;;;29.70;79.70;;;;;;4980482;28;20176;-79
2023/08/14 08:41:24;;;;;;;2.40;2.20;;;29.80;80.50;;;;;;4981310;28;20038;-79
2023/08/14 08:44:01;;;;;;;2.72;2.20;;;29.80;80.10;;;;;;4991364;28;20054;-79
2023/08/14 08:46:28;;;;;;;2.97;2.15;;;29.90;80.90;;;;;;4964085;28;20097;-80
2023/08/14 08:48:54;;;;;;;2.83;2.40;;;30.00;80.30;;;;;;4976725;28;20416;-79
2023/08/14 08:51:21;;;;;;;2.65;2.13;;;30.00;79.80;;;;;;4977303;28;20026;-78
2023/08/14 08:53:47;;;;;;;2.80;2.30;;;30.20;79.80;;;;;;4971204;28;20042;-78
2023/08/14 08:56:14;;;;;;;4.40;2.80;;;30.20;79.80;;;;;;4992093;28;20045;-78
2023/08/14 08:58:40;;;;;;;2.40;2.17;;;30.30;79.50;;;;;;4978598;28;20562;-78
2023/08/14 09:01:06;;;;;;;5.15;2.20;;;30.30;79.50;;;;;;4986204;28;20047;-79
2023/08/14 09:03:32;;;;;;;2.25;2.05;;;30.40;79.80;;;;;;4986129;28;20100;-79
2023/08/14 09:05:58;;;;;;;3.25;2.50;;;30.40;79.60;;;;;;4994121;28;20109;-79
2023/08/14 09:08:24;;;;;;;2.58;2.38;;;30.40;79.30;;;;;;4984500;28;20031;-79
2023/08/14 09:10:50;;;;;;;4.88;2.70;;;30.50;79.60;;;;;;4994810;28;20033;-81
2023/08/14 09:13:16;;;;;;;2.60;2.40;;;30.60;79.80;;;;;;4989278;28;20038;-81
2023/08/14 09:15:43;;;;;;;2.35;2.00;;;30.60;79.60;;;;;;4984139;28;20042;-81
2023/08/14 09:18:12;;;;;;;4.53;2.33;;;30.70;80.10;;;;;;4982803;28;20042;-88
2023/08/14 09:20:41;;;;;;;2.55;2.35;;;30.80;80.10;;;;;;4984512;28;20035;-81
2023/08/14 09:23:12;;;;;;;5.20;2.40;;;30.90;79.60;;;;;;4988057;28;20058;-81
2023/08/14 09:25:45;;;;;;;2.53;2.00;;;31.00;79.30;;;;;;4986486;28;20030;-81
2023/08/14 09:28:11;;;;;;;2.30;2.10;;;31.20;78.60;;;;;;4987711;28;20038;-81
2023/08/14 09:30:37;;;;;;;2.28;1.98;;;31.20;78.40;;;;;;4998237;28;20036;-81
2023/08/14 09:33:10;;;;;;;3.58;3.15;;;31.30;78.80;;;;;;4994047;28;20432;-81
2023/08/14 09:35:38;;;;;;;3.40;2.15;;;31.30;79.30;;;;;;4984843;28;20109;-81
2023/08/14 09:38:05;;;;;;;3.40;2.60;;;31.40;79.70;;;;;;4994006;28;20030;-81
2023/08/14 09:40:32;;;;;;;6.88;2.65;;;31.40;79.60;;;;;;4975800;28;20027;-81
2023/08/14 09:42:58;;;;;;;3.35;2.40;;;31.60;80.60;;;;;;5001219;28;20042;-81
2023/08/14 09:45:27;;;;;;;3.50;3.20;;;31.60;80.10;;;;;;4990841;28;20101;-81
2023/08/14 09:47:58;;;;;;;5.90;2.60;;;31.70;80.30;;;;;;4994979;28;20053;-81
2023/08/14 09:50:27;;;;;;;4.55;2.55;;;31.80;80.70;;;;;;4972182;28;20771;-88
2023/08/14 09:52:59;;;;;;;4.13;2.72;;;31.80;80.80;;;;;;4991396;28;20065;-88
2023/08/14 09:55:27;;;;;;;5.07;2.55;;;32.00;81.10;;;;;;4993439;28;20097;-88
2023/08/14 09:57:53;;;;;;;3.75;2.80;;;32.10;81.30;;;;;;4993432;28;20118;-88
2023/08/14 10:00:19;;;;;;;4.78;2.58;;;32.20;81.20;;;;;;4992649;28;20484;-88
2023/08/14 10:02:47;;;;;;;3.95;2.65;;;32.30;81.10;;;;;;4991347;28;20045;-88
2023/08/14 10:05:15;;;;;;;3.90;2.45;;;32.40;81.00;;;;;;4978759;28;20026;-89
2023/08/14 10:07:42;;;;;;;5.68;2.90;;;32.50;81.00;;;;;;4991791;28;20080;-87
2023/08/14 10:10:08;;;;;;;3.00;2.38;;;32.60;80.70;;;;;;4988385;28;20089;-88
2023/08/14 10:12:42;;;;;;;2.97;2.70;;;32.70;80.50;;;;;;4991169;28;20037;-88
2023/08/14 10:15:11;;;;;;;4.15;2.58;;;32.80;79.70;;;;;;4986097;28;20035;-85
2023/08/14 10:17:55;;;;;;;5.88;2.67;;;32.90;79.70;;;;;;4990668;28;20045;-88
2023/08/14 10:20:22;;;;;;;6.72;2.70;;;32.90;79.10;;;;;;4987574;28;20039;-88
2023/08/14 10:22:49;;;;;;;5.30;3.38;;;33.00;79.00;;;;;;4989479;28;20034;-88
2023/08/14 10:25:17;;;;;;;6.32;3.63;;;33.00;78.90;;;;;;4984033;28;20034;-88
2023/08/14 10:27:43;;;;;;;4.85;3.17;;;33.10;78.00;;;;;;4990986;28;20035;-88
2023/08/14 10:30:10;;;;;;;3.17;2.45;;;33.00;78.50;;;;;;4994344;28;20439;-88
2023/08/14 10:32:37;;;;;;;2.70;2.40;;;33.10;78.90;;;;;;4992660;28;20407;-88
2023/08/14 10:35:03;;;;;;;2.88;2.50;;;33.20;78.80;;;;;;4992913;28;20042;-88
2023/08/14 10:37:43;;;;;;;4.00;2.92;;;33.30;78.30;;;;;;4993517;28;20031;-88
2023/08/14 10:40:23;;;;;;;4.40;2.78;;;33.50;77.40;;;;;;4993144;28;20451;-88
2023/08/14 10:42:57;;;;;;;3.05;2.20;;;33.60;77.00;;;;;;4991231;28;20048;-87
2023/08/14 10:45:28;;;;;;;2.47;2.28;;;33.70;77.60;;;;;;5007238;28;20041;-88
2023/08/14 10:48:00;;;;;;;5.45;2.88;;;33.70;77.10;;;;;;5006283;28;20061;-88
2023/08/14 10:50:28;;;;;;;3.00;2.70;;;33.90;76.90;;;;;;4983168;28;20026;-89
2023/08/14 10:52:56;;;;;;;3.47;2.97;;;34.00;76.80;;;;;;4991319;28;20109;-81
2023/08/14 10:55:37;;;;;;;2.55;2.35;;;34.20;76.70;;;;;;4982849;28;20154;-81
2023/08/14 10:58:28;;;;;;;4.60;2.65;;;34.30;76.20;;;;;;4997444;28;20042;-81
2023/08/14 11:00:54;;;;;;;5.13;2.92;;;34.40;76.00;;;;;;4983818;28;20550;-81
2023/08/14 11:03:20;;;;;;;3.08;2.70;;;34.40;76.10;;;;;;4985602;28;20042;-81
2023/08/14 11:05:46;;;;;;;3.92;2.47;;;34.50;75.90;;;;;;4985387;28;20039;-81
2023/08/14 11:08:12;;;;;;;3.08;2.53;;;34.60;76.00;;;;;;4988160;28;20049;-81
2023/08/14 11:10:39;;;;;;;6.43;3.50;;;34.80;75.50;;;;;;4993021;28;20053;-81
2023/08/14 11:13:09;;;;;;;6.03;2.60;;;34.90;73.70;;;;;;4991837;28;20037;-80
2023/08/14 11:15:39;;;;;;;4.03;3.17;;;34.90;74.10;;;;;;4984485;28;20592;-80
2023/08/14 11:18:09;;;;;;;3.45;2.85;;;35.00;73.10;;;;;;4982473;28;20061;-79
2023/08/14 11:20:37;;;;;;;3.65;2.80;;;35.10;73.30;;;;;;4983708;28;20038;-80
2023/08/14 11:23:03;;;;;;;10.05;2.88;;;35.20;73.00;;;;;;4987993;28;20049;-80
2023/08/14 11:25:31;;;;;;;2.90;2.30;;;35.40;72.20;;;;;;4961457;28;20038;-79
2023/08/14 11:27:57;;;;;;;2.83;2.50;;;35.50;71.20;;;;;;4983100;28;20125;-80
2023/08/14 11:30:25;;;;;;;2.92;2.33;;;35.70;69.80;;;;;;4983771;28;20049;-88
2023/08/14 11:32:51;;;;;;;2.67;2.47;;;35.80;68.70;;;;;;4989794;28;20039;-87
2023/08/14 11:35:18;;;;;;;2.90;2.20;;;36.00;68.10;;;;;;4992892;28;20038;-88
2023/08/14 11:37:46;;;;;;;2.85;2.22;;;36.30;67.90;;;;;;4971676;28;20058;-87
2023/08/14 11:40:15;;;;;;;3.83;2.30;;;36.50;66.70;;;;;;4976825;28;20497;-88
2023/08/14 11:42:42;;;;;;;3.38;2.78;;;36.70;65.50;;;;;;4977186;28;20126;-87
2023/08/14 11:45:08;;;;;;;3.30;2.58;;;36.90;63.90;;;;;;4986014;28;20043;-88
2023/08/14 11:47:36;;;;;;;2.65;2.10;;;37.00;63.90;;;;;;4980253;28;20062;-87
2023/08/14 11:50:07;;;;;;;2.60;2.40;;;37.20;63.60;;;;;;4978876;28;20380;-88
2023/08/14 11:52:34;;;;;;;2.55;2.13;;;37.40;62.30;;;;;;4976838;28;20601;-88
2023/08/14 11:55:00;;;;;;;2.78;2.05;;;37.70;62.10;;;;;;4988957;28;20066;-87
2023/08/14 11:57:27;;;;;;;5.25;2.50;;;38.00;61.70;;;;;;4971372;28;20417;-87
2023/08/14 11:59:54;;;;;;;3.45;2.20;;;38.20;60.40;;;;;;4984200;28;20042;-86
2023/08/14 12:02:20;;;;;;;2.63;2.17;;;38.40;60.30;;;;;;4982355;28;20054;-86
2023/08/14 12:04:51;;;;;;;2.33;2.00;;;38.60;58.90;;;;;;4974037;28;20035;-87
2023/08/14 12:07:21;;;;;;;2.58;2.38;;;38.70;58.80;;;;;;4990800;28;20547;-87
2023/08/14 12:09:48;;;;;;;2.65;2.13;;;38.70;57.80;;;;;;4992228;28;20069;-87
2023/08/14 12:12:14;;;;;;;3.08;2.20;;;38.70;57.70;;;;;;4980334;28;20184;-89
2023/08/14 12:14:41;;;;;;;2.25;2.05;;;38.80;57.30;;;;;;4986094;28;20161;-90
2023/08/14 12:17:10;;;;;;;2.45;2.25;;;38.90;57.10;;;;;;4992332;28;20042;-88
2023/08/14 12:19:36;;;;;;;2.20;2.00;;;39.00;57.30;;;;;;4993106;28;20434;-90
2023/08/14 12:22:02;;;;;;;4.30;2.47;;;39.10;56.90;;;;;;4991694;28;20045;-92
2023/08/14 12:24:35;;;;;;;3.55;2.20;;;39.10;56.70;;;;;;4991480;28;20034;-88
2023/08/14 12:27:01;;;;;;;2.58;2.38;;;39.20;56.80;;;;;;4990140;28;20046;-87
2023/08/14 12:29:29;;;;;;;2.67;2.30;;;39.30;56.10;;;;;;4984341;28;20078;-90
2023/08/14 12:31:59;;;;;;;2.60;2.17;;;39.40;55.70;;;;;;4996449;28;20034;-90
2023/08/14 12:34:25;;;;;;;2.65;2.25;;;39.40;54.60;;;;;;4994189;28;20026;-92
2023/08/14 12:36:50;;;;;;;2.50;2.30;;;39.40;54.30;;;;;;4996703;28;20125;-91
2023/08/14 12:39:16;;;;;;;2.33;2.13;;;39.50;54.50;;;;;;4993371;28;20113;-91
2023/08/14 12:41:42;;;;;;;4.15;2.60;;;39.50;53.80;;;;;;5007277;28;20097;-91
2023/08/14 12:44:07;;;;;;;5.63;2.40;;;39.50;53.10;;;;;;4996838;28;20031;-92
2023/08/14 12:46:33;;;;;;;4.00;2.47;;;39.50;53.10;;;;;;4996383;28;20435;-92
2023/08/14 12:48:59;;;;;;;2.72;1.90;;;39.50;52.60;;;;;;4996614;28;20062;-91